sensor_id;sensor_type;location;lat;lon;timestamp;pressure;altitude;pressure_sealevel;temperature;humidity
52855;BME280;38719;51.418;7.286;2023-03-31T00:00:44;98743.50;;;12.33;68.91
52855;BME280;38719;51.418;7.286;2023-03-31T00:03:13;98744.03;;;12.38;68.58
52855;BME280;38719;51.418;7.286;2023-03-31T00:05:48;98747.22;;;12.43;67.98
52855;BME280;38719;51.418;7.286;2023-03-31T00:08:20;98740.41;;;12.39;68.87
52855;BME280;38719;51.418;7.286;2023-03-31T00:10:48;98731.13;;;12.32;69.05
52855;BME280;38719;51.418;7.286;2023-03-31T00:13:16;98734.97;;;12.28;68.75
52855;BME280;38719;51.418;7.286;2023-03-31T00:15:43;98726.53;;;12.34;68.16
52855;BME280;38719;51.418;7.286;2023-03-31T00:18:11;98729.91;;;12.49;68.26
52855;BME280;38719;51.418;7.286;2023-03-31T00:20:38;98717.03;;;12.30;68.25
52855;BME280;38719;51.418;7.286;2023-03-31T00:23:08;98703.47;;;12.33;68.24
52855;BME280;38719;51.418;7.286;2023-03-31T00:25:39;98709.53;;;12.35;67.77
52855;BME280;38719;51.418;7.286;2023-03-31T00:28:07;98702.94;;;12.28;68.91
52855;BME280;38719;51.418;7.286;2023-03-31T00:30:34;98695.91;;;12.27;68.49
52855;BME280;38719;51.418;7.286;2023-03-31T00:33:02;98690.56;;;12.27;68.23
52855;BME280;38719;51.418;7.286;2023-03-31T00:35:30;98688.53;;;12.17;68.12
52855;BME280;38719;51.418;7.286;2023-03-31T00:37:58;98690.03;;;12.21;68.68
52855;BME280;38719;51.418;7.286;2023-03-31T00:40:25;98680.09;;;12.23;68.12
52855;BME280;38719;51.418;7.286;2023-03-31T00:42:54;98676.28;;;12.15;68.04
52855;BME280;38719;51.418;7.286;2023-03-31T00:45:27;98674.69;;;12.12;68.35
52855;BME280;38719;51.418;7.286;2023-03-31T00:48:00;98659.16;;;12.30;68.57
52855;BME280;38719;51.418;7.286;2023-03-31T00:50:32;98658.97;;;12.20;68.06
52855;BME280;38719;51.418;7.286;2023-03-31T00:53:05;98665.78;;;12.24;67.98
52855;BME280;38719;51.418;7.286;2023-03-31T00:55:42;98661.53;;;12.22;68.81
52855;BME280;38719;51.418;7.286;2023-03-31T00:58:14;98666.47;;;12.15;68.57
52855;BME280;38719;51.418;7.286;2023-03-31T01:00:46;98647.78;;;12.15;67.99
52855;BME280;38719;51.418;7.286;2023-03-31T01:03:14;98651.50;;;12.13;68.45
52855;BME280;38719;51.418;7.286;2023-03-31T01:05:46;98648.31;;;12.20;68.96
52855;BME280;38719;51.418;7.286;2023-03-31T01:08:18;98641.69;;;12.13;70.74
52855;BME280;38719;51.418;7.286;2023-03-31T01:10:51;98631.03;;;12.13;70.93
52855;BME280;38719;51.418;7.286;2023-03-31T01:13:21;98617.88;;;12.23;71.40
52855;BME280;38719;51.418;7.286;2023-03-31T01:15:49;98613.50;;;12.22;71.29
52855;BME280;38719;51.418;7.286;2023-03-31T01:18:17;98612.84;;;12.18;71.90
52855;BME280;38719;51.418;7.286;2023-03-31T01:21:23;98604.78;;;12.07;72.69
52855;BME280;38719;51.418;7.286;2023-03-31T01:27:05;98592.84;;;12.00;73.72
52855;BME280;38719;51.418;7.286;2023-03-31T01:29:53;98583.28;;;12.21;73.51
52855;BME280;38719;51.418;7.286;2023-03-31T01:32:43;98580.72;;;12.20;72.82
52855;BME280;38719;51.418;7.286;2023-03-31T01:38:48;98561.38;;;12.29;72.86
52855;BME280;38719;51.418;7.286;2023-03-31T01:41:30;98575.44;;;12.31;72.88
52855;BME280;38719;51.418;7.286;2023-03-31T01:44:06;98577.16;;;12.08;73.55
52855;BME280;38719;51.418;7.286;2023-03-31T01:46:44;98573.63;;;12.07;74.65
52855;BME280;38719;51.418;7.286;2023-03-31T01:49:19;98553.56;;;12.26;73.20
52855;BME280;38719;51.418;7.286;2023-03-31T01:51:56;98550.53;;;12.19;72.85
52855;BME280;38719;51.418;7.286;2023-03-31T01:54:31;98541.75;;;12.17;73.25
52855;BME280;38719;51.418;7.286;2023-03-31T01:57:11;98534.84;;;12.15;73.24
52855;BME280;38719;51.418;7.286;2023-03-31T01:59:45;98526.63;;;12.18;72.50
52855;BME280;38719;51.418;7.286;2023-03-31T02:02:18;98526.22;;;12.11;73.50
52855;BME280;38719;51.418;7.286;2023-03-31T02:04:51;98521.44;;;12.28;73.31
52855;BME280;38719;51.418;7.286;2023-03-31T02:07:23;98504.44;;;12.29;72.91
52855;BME280;38719;51.418;7.286;2023-03-31T02:09:57;98511.91;;;12.36;72.03
52855;BME280;38719;51.418;7.286;2023-03-31T02:12:30;98505.53;;;12.26;72.54
52855;BME280;38719;51.418;7.286;2023-03-31T02:15:02;98502.25;;;12.22;72.84
52855;BME280;38719;51.418;7.286;2023-03-31T02:17:30;98493.72;;;12.17;72.50
52855;BME280;38719;51.418;7.286;2023-03-31T02:20:02;98498.16;;;12.30;72.60
52855;BME280;38719;51.418;7.286;2023-03-31T02:22:35;98485.50;;;12.20;73.25
52855;BME280;38719;51.418;7.286;2023-03-31T02:25:05;98484.75;;;12.18;72.59
52855;BME280;38719;51.418;7.286;2023-03-31T02:27:38;98474.78;;;12.09;72.55
52855;BME280;38719;51.418;7.286;2023-03-31T02:30:08;98472.06;;;11.98;73.97
52855;BME280;38719;51.418;7.286;2023-03-31T02:32:38;98472.63;;;12.14;73.56
52855;BME280;38719;51.418;7.286;2023-03-31T02:35:09;98467.50;;;12.11;73.07
52855;BME280;38719;51.418;7.286;2023-03-31T02:37:38;98471.63;;;11.91;74.04
52855;BME280;38719;51.418;7.286;2023-03-31T02:40:10;98472.72;;;11.88;74.93
52855;BME280;38719;51.418;7.286;2023-03-31T02:42:40;98453.47;;;11.72;75.63
52855;BME280;38719;51.418;7.286;2023-03-31T02:45:36;98452.50;;;11.73;76.23
52855;BME280;38719;51.418;7.286;2023-03-31T02:48:04;98440.53;;;11.54;76.65
52855;BME280;38719;51.418;7.286;2023-03-31T02:50:42;98436.69;;;11.58;76.33
52855;BME280;38719;51.418;7.286;2023-03-31T02:53:20;98428.91;;;11.55;76.90
52855;BME280;38719;51.418;7.286;2023-03-31T02:55:58;98416.31;;;11.57;76.34
52855;BME280;38719;51.418;7.286;2023-03-31T02:58:49;98405.38;;;11.73;76.04
52855;BME280;38719;51.418;7.286;2023-03-31T03:01:30;98390.16;;;11.87;75.86
52855;BME280;38719;51.418;7.286;2023-03-31T03:04:12;98388.75;;;11.70;75.72
52855;BME280;38719;51.418;7.286;2023-03-31T03:06:53;98376.41;;;11.80;76.87
52855;BME280;38719;51.418;7.286;2023-03-31T03:09:30;98364.31;;;11.87;75.80
52855;BME280;38719;51.418;7.286;2023-03-31T03:12:08;98362.78;;;11.72;75.90
52855;BME280;38719;51.418;7.286;2023-03-31T03:14:44;98360.03;;;11.73;75.80
52855;BME280;38719;51.418;7.286;2023-03-31T03:17:16;98349.59;;;11.70;76.00
52855;BME280;38719;51.418;7.286;2023-03-31T03:19:50;98349.63;;;11.82;76.16
52855;BME280;38719;51.418;7.286;2023-03-31T03:22:19;98347.56;;;12.09;76.01
52855;BME280;38719;51.418;7.286;2023-03-31T03:24:46;98339.69;;;12.08;74.98
52855;BME280;38719;51.418;7.286;2023-03-31T03:27:14;98333.72;;;12.04;74.67
52855;BME280;38719;51.418;7.286;2023-03-31T03:29:43;98330.94;;;12.06;75.46
52855;BME280;38719;51.418;7.286;2023-03-31T03:32:10;98317.88;;;12.14;75.67
52855;BME280;38719;51.418;7.286;2023-03-31T03:34:38;98301.94;;;12.13;74.57
52855;BME280;38719;51.418;7.286;2023-03-31T03:37:05;98306.78;;;12.07;75.23
52855;BME280;38719;51.418;7.286;2023-03-31T03:39:33;98313.50;;;12.24;75.12
52855;BME280;38719;51.418;7.286;2023-03-31T03:42:00;98306.94;;;12.17;74.70
52855;BME280;38719;51.418;7.286;2023-03-31T03:44:28;98294.47;;;12.29;73.89
52855;BME280;38719;51.418;7.286;2023-03-31T03:46:56;98288.03;;;12.09;74.48
52855;BME280;38719;51.418;7.286;2023-03-31T03:49:24;98271.53;;;12.15;74.08
52855;BME280;38719;51.418;7.286;2023-03-31T03:51:51;98282.91;;;12.17;73.40
52855;BME280;38719;51.418;7.286;2023-03-31T03:54:19;98268.25;;;12.23;73.25
52855;BME280;38719;51.418;7.286;2023-03-31T03:56:46;98270.31;;;12.31;73.35
52855;BME280;38719;51.418;7.286;2023-03-31T03:59:14;98275.03;;;12.27;73.23
52855;BME280;38719;51.418;7.286;2023-03-31T04:01:42;98268.25;;;12.23;73.41
52855;BME280;38719;51.418;7.286;2023-03-31T04:04:11;98256.22;;;12.29;73.78
52855;BME280;38719;51.418;7.286;2023-03-31T04:06:38;98244.38;;;12.21;73.58
52855;BME280;38719;51.418;7.286;2023-03-31T04:09:06;98242.31;;;12.36;73.18
52855;BME280;38719;51.418;7.286;2023-03-31T04:11:34;98236.34;;;12.33;73.57
52855;BME280;38719;51.418;7.286;2023-03-31T04:14:02;98232.81;;;12.32;72.41
52855;BME280;38719;51.418;7.286;2023-03-31T04:16:29;98229.81;;;12.14;73.47
52855;BME280;38719;51.418;7.286;2023-03-31T04:18:59;98222.63;;;12.26;73.50
52855;BME280;38719;51.418;7.286;2023-03-31T04:21:31;98219.97;;;12.15;72.77
52855;BME280;38719;51.418;7.286;2023-03-31T04:24:00;98212.44;;;12.08;74.05
52855;BME280;38719;51.418;7.286;2023-03-31T04:26:31;98217.19;;;12.05;73.30
52855;BME280;38719;51.418;7.286;2023-03-31T04:29:09;98212.31;;;11.99;74.29
52855;BME280;38719;51.418;7.286;2023-03-31T04:31:39;98206.50;;;12.05;73.99
52855;BME280;38719;51.418;7.286;2023-03-31T04:34:09;98207.59;;;12.02;74.20
52855;BME280;38719;51.418;7.286;2023-03-31T04:36:41;98187.69;;;12.06;73.94
52855;BME280;38719;51.418;7.286;2023-03-31T04:39:13;98186.63;;;12.09;73.79
52855;BME280;38719;51.418;7.286;2023-03-31T04:41:41;98184.03;;;11.85;73.67
52855;BME280;38719;51.418;7.286;2023-03-31T04:44:09;98191.78;;;11.88;74.97
52855;BME280;38719;51.418;7.286;2023-03-31T04:46:36;98190.22;;;11.85;74.52
52855;BME280;38719;51.418;7.286;2023-03-31T04:49:04;98177.75;;;11.86;74.56
52855;BME280;38719;51.418;7.286;2023-03-31T04:51:32;98167.69;;;11.89;74.43
52855;BME280;38719;51.418;7.286;2023-03-31T04:54:00;98161.38;;;11.79;75.19
52855;BME280;38719;51.418;7.286;2023-03-31T04:56:28;98157.25;;;11.52;75.77
52855;BME280;38719;51.418;7.286;2023-03-31T04:58:56;98149.72;;;11.46;75.89
52855;BME280;38719;51.418;7.286;2023-03-31T05:01:23;98154.31;;;11.44;76.89
52855;BME280;38719;51.418;7.286;2023-03-31T05:03:51;98145.72;;;11.52;76.76
52855;BME280;38719;51.418;7.286;2023-03-31T05:06:18;98133.59;;;11.59;75.49
52855;BME280;38719;51.418;7.286;2023-03-31T05:08:46;98124.78;;;11.70;75.95
52855;BME280;38719;51.418;7.286;2023-03-31T05:11:15;98118.22;;;11.74;76.11
52855;BME280;38719;51.418;7.286;2023-03-31T05:13:42;98106.34;;;11.67;75.78
52855;BME280;38719;51.418;7.286;2023-03-31T05:16:12;98109.00;;;11.78;75.30
52855;BME280;38719;51.418;7.286;2023-03-31T05:18:40;98103.78;;;11.88;75.53
52855;BME280;38719;51.418;7.286;2023-03-31T05:21:13;98085.88;;;11.56;75.74
52855;BME280;38719;51.418;7.286;2023-03-31T05:23:41;98088.16;;;11.72;75.87
52855;BME280;38719;51.418;7.286;2023-03-31T05:26:10;98084.53;;;11.61;75.33
52855;BME280;38719;51.418;7.286;2023-03-31T05:28:40;98073.38;;;11.56;75.82
52855;BME280;38719;51.418;7.286;2023-03-31T05:31:08;98058.94;;;11.70;75.39
52855;BME280;38719;51.418;7.286;2023-03-31T05:33:36;98052.31;;;11.65;74.77
52855;BME280;38719;51.418;7.286;2023-03-31T05:36:08;98048.16;;;11.83;75.34
52855;BME280;38719;51.418;7.286;2023-03-31T05:38:37;98038.69;;;11.90;74.18
52855;BME280;38719;51.418;7.286;2023-03-31T05:41:05;98038.59;;;11.81;74.01
52855;BME280;38719;51.418;7.286;2023-03-31T05:43:32;98027.44;;;11.64;74.69
52855;BME280;38719;51.418;7.286;2023-03-31T05:46:01;98016.78;;;11.64;75.20
52855;BME280;38719;51.418;7.286;2023-03-31T05:48:29;98014.47;;;11.59;74.63
52855;BME280;38719;51.418;7.286;2023-03-31T05:50:56;98006.97;;;11.65;74.54
52855;BME280;38719;51.418;7.286;2023-03-31T05:53:24;98004.44;;;11.74;74.62
52855;BME280;38719;51.418;7.286;2023-03-31T05:55:56;97998.09;;;11.87;73.56
52855;BME280;38719;51.418;7.286;2023-03-31T05:58:23;97999.44;;;11.70;73.83
52855;BME280;38719;51.418;7.286;2023-03-31T06:01:01;97996.28;;;11.76;73.98
52855;BME280;38719;51.418;7.286;2023-03-31T06:03:31;97990.19;;;11.85;73.84
52855;BME280;38719;51.418;7.286;2023-03-31T06:05:59;97987.53;;;11.85;73.56
52855;BME280;38719;51.418;7.286;2023-03-31T06:08:28;97992.03;;;11.85;72.95
52855;BME280;38719;51.418;7.286;2023-03-31T06:10:55;97984.66;;;11.77;73.40
52855;BME280;38719;51.418;7.286;2023-03-31T06:13:23;97982.38;;;11.61;73.08
52855;BME280;38719;51.418;7.286;2023-03-31T06:15:54;97977.56;;;11.43;74.69
52855;BME280;38719;51.418;7.286;2023-03-31T06:18:24;97968.69;;;11.54;73.76
52855;BME280;38719;51.418;7.286;2023-03-31T06:20:54;97967.97;;;11.52;73.55
52855;BME280;38719;51.418;7.286;2023-03-31T06:23:22;97958.78;;;11.22;74.65
52855;BME280;38719;51.418;7.286;2023-03-31T06:25:50;97966.06;;;11.32;74.97
52855;BME280;38719;51.418;7.286;2023-03-31T06:28:18;97962.44;;;11.33;75.02
52855;BME280;38719;51.418;7.286;2023-03-31T06:30:46;97968.25;;;11.38;74.78
52855;BME280;38719;51.418;7.286;2023-03-31T06:33:13;97963.75;;;11.27;75.45
52855;BME280;38719;51.418;7.286;2023-03-31T06:35:43;97958.06;;;11.32;75.54
52855;BME280;38719;51.418;7.286;2023-03-31T06:38:10;97950.09;;;11.20;75.67
52855;BME280;38719;51.418;7.286;2023-03-31T06:40:38;97949.00;;;11.23;75.92
52855;BME280;38719;51.418;7.286;2023-03-31T06:43:05;97951.19;;;11.18;75.82
52855;BME280;38719;51.418;7.286;2023-03-31T06:45:33;97943.06;;;11.19;76.76
52855;BME280;38719;51.418;7.286;2023-03-31T06:48:00;97950.19;;;11.30;76.19
52855;BME280;38719;51.418;7.286;2023-03-31T06:50:28;97943.63;;;11.45;75.45
52855;BME280;38719;51.418;7.286;2023-03-31T06:52:56;97933.72;;;11.13;76.40
52855;BME280;38719;51.418;7.286;2023-03-31T06:55:25;97930.97;;;11.15;76.74
52855;BME280;38719;51.418;7.286;2023-03-31T06:57:52;97925.63;;;11.15;77.05
52855;BME280;38719;51.418;7.286;2023-03-31T07:00:20;97941.84;;;11.23;76.39
52855;BME280;38719;51.418;7.286;2023-03-31T07:02:48;97928.78;;;11.20;76.62
52855;BME280;38719;51.418;7.286;2023-03-31T07:05:16;97946.19;;;11.24;76.58
52855;BME280;38719;51.418;7.286;2023-03-31T07:07:44;97929.72;;;11.31;76.96
52855;BME280;38719;51.418;7.286;2023-03-31T07:10:13;97936.50;;;11.23;76.37
52855;BME280;38719;51.418;7.286;2023-03-31T07:12:41;97932.25;;;11.32;76.29
52855;BME280;38719;51.418;7.286;2023-03-31T07:15:09;97935.41;;;11.26;76.00
52855;BME280;38719;51.418;7.286;2023-03-31T07:17:36;97934.94;;;11.21;76.11
52855;BME280;38719;51.418;7.286;2023-03-31T07:20:09;97922.81;;;11.28;76.45
52855;BME280;38719;51.418;7.286;2023-03-31T07:22:40;97941.84;;;11.23;76.74
52855;BME280;38719;51.418;7.286;2023-03-31T07:25:09;97926.59;;;11.14;76.80
52855;BME280;38719;51.418;7.286;2023-03-31T07:27:38;97914.72;;;11.18;76.63
52855;BME280;38719;51.418;7.286;2023-03-31T07:30:08;97932.41;;;11.19;76.75
52855;BME280;38719;51.418;7.286;2023-03-31T07:32:36;97920.91;;;11.19;76.83
52855;BME280;38719;51.418;7.286;2023-03-31T07:35:07;97919.56;;;11.24;76.62
52855;BME280;38719;51.418;7.286;2023-03-31T07:37:35;97919.09;;;11.19;76.68
52855;BME280;38719;51.418;7.286;2023-03-31T07:40:04;97911.19;;;11.29;76.05
52855;BME280;38719;51.418;7.286;2023-03-31T07:42:32;97910.75;;;11.12;76.34
52855;BME280;38719;51.418;7.286;2023-03-31T07:45:02;97909.84;;;11.35;75.73
52855;BME280;38719;51.418;7.286;2023-03-31T07:47:31;97908.53;;;11.29;75.61
52855;BME280;38719;51.418;7.286;2023-03-31T07:49:59;97911.28;;;11.50;75.51
52855;BME280;38719;51.418;7.286;2023-03-31T07:52:26;97910.03;;;11.54;74.16
52855;BME280;38719;51.418;7.286;2023-03-31T07:54:54;97902.28;;;11.63;74.76
52855;BME280;38719;51.418;7.286;2023-03-31T07:57:21;97902.31;;;11.51;74.62
52855;BME280;38719;51.418;7.286;2023-03-31T07:59:49;97907.59;;;11.63;74.38
52855;BME280;38719;51.418;7.286;2023-03-31T08:02:18;97893.81;;;11.57;74.84
52855;BME280;38719;51.418;7.286;2023-03-31T08:04:46;97904.97;;;11.51;75.00
52855;BME280;38719;51.418;7.286;2023-03-31T08:07:14;97903.44;;;11.37;74.63
52855;BME280;38719;51.418;7.286;2023-03-31T08:09:44;97891.28;;;11.44;75.06
52855;BME280;38719;51.418;7.286;2023-03-31T08:12:13;97888.53;;;11.35;74.42
52855;BME280;38719;51.418;7.286;2023-03-31T08:14:40;97884.22;;;11.11;75.72
52855;BME280;38719;51.418;7.286;2023-03-31T08:17:08;97874.41;;;11.23;75.73
52855;BME280;38719;51.418;7.286;2023-03-31T08:19:37;97887.91;;;11.42;74.58
52855;BME280;38719;51.418;7.286;2023-03-31T08:22:05;97885.09;;;11.55;74.66
52855;BME280;38719;51.418;7.286;2023-03-31T08:24:33;97881.13;;;11.50;73.39
52855;BME280;38719;51.418;7.286;2023-03-31T08:27:01;97882.84;;;11.72;73.47
52855;BME280;38719;51.418;7.286;2023-03-31T08:29:28;97878.97;;;11.76;73.70
52855;BME280;38719;51.418;7.286;2023-03-31T08:31:56;97880.25;;;11.82;73.02
52855;BME280;38719;51.418;7.286;2023-03-31T08:34:23;97879.94;;;11.75;73.77
52855;BME280;38719;51.418;7.286;2023-03-31T08:36:53;97870.19;;;11.53;73.80
52855;BME280;38719;51.418;7.286;2023-03-31T08:39:21;97876.03;;;11.79;73.17
52855;BME280;38719;51.418;7.286;2023-03-31T08:41:54;97880.59;;;12.00;73.38
52855;BME280;38719;51.418;7.286;2023-03-31T08:44:28;97869.84;;;12.11;72.85
52855;BME280;38719;51.418;7.286;2023-03-31T08:47:00;97874.59;;;12.07;72.83
52855;BME280;38719;51.418;7.286;2023-03-31T08:49:32;97868.44;;;12.07;72.69
52855;BME280;38719;51.418;7.286;2023-03-31T08:52:08;97878.00;;;12.09;72.35
52855;BME280;38719;51.418;7.286;2023-03-31T08:54:39;97871.75;;;11.99;73.15
52855;BME280;38719;51.418;7.286;2023-03-31T08:57:13;97865.75;;;12.07;73.35
52855;BME280;38719;51.418;7.286;2023-03-31T08:59:41;97874.88;;;12.04;73.53
52855;BME280;38719;51.418;7.286;2023-03-31T09:02:19;97863.63;;;12.01;74.22
52855;BME280;38719;51.418;7.286;2023-03-31T09:04:58;97847.69;;;12.11;74.36
52855;BME280;38719;51.418;7.286;2023-03-31T09:07:39;97852.78;;;12.45;73.27
52855;BME280;38719;51.418;7.286;2023-03-31T09:10:22;97850.09;;;12.45;73.02
52855;BME280;38719;51.418;7.286;2023-03-31T09:12:55;97855.41;;;12.66;73.00
52855;BME280;38719;51.418;7.286;2023-03-31T09:15:27;97850.53;;;12.81;72.95
52855;BME280;38719;51.418;7.286;2023-03-31T09:17:56;97855.34;;;12.77;72.19
52855;BME280;38719;51.418;7.286;2023-03-31T09:20:30;97846.16;;;12.70;73.03
52855;BME280;38719;51.418;7.286;2023-03-31T09:23:05;97851.56;;;12.80;71.73
52855;BME280;38719;51.418;7.286;2023-03-31T09:25:38;97845.13;;;12.92;72.69
52855;BME280;38719;51.418;7.286;2023-03-31T09:28:13;97840.72;;;12.81;73.00
52855;BME280;38719;51.418;7.286;2023-03-31T09:30:43;97848.59;;;12.83;72.17
52855;BME280;38719;51.418;7.286;2023-03-31T09:33:17;97837.78;;;12.84;71.85
52855;BME280;38719;51.418;7.286;2023-03-31T09:35:45;97838.78;;;12.83;72.17
52855;BME280;38719;51.418;7.286;2023-03-31T09:38:16;97837.97;;;13.02;71.27
52855;BME280;38719;51.418;7.286;2023-03-31T09:40:44;97834.63;;;13.10;71.70
52855;BME280;38719;51.418;7.286;2023-03-31T09:43:20;97836.44;;;13.00;71.81
52855;BME280;38719;51.418;7.286;2023-03-31T09:45:49;97833.69;;;13.31;71.33
52855;BME280;38719;51.418;7.286;2023-03-31T09:48:34;97823.13;;;13.19;71.75
52855;BME280;38719;51.418;7.286;2023-03-31T09:51:05;97818.19;;;13.15;71.38
52855;BME280;38719;51.418;7.286;2023-03-31T09:53:39;97827.34;;;13.22;71.21
52855;BME280;38719;51.418;7.286;2023-03-31T09:56:08;97818.19;;;13.25;70.94
52855;BME280;38719;51.418;7.286;2023-03-31T09:58:39;97813.41;;;13.18;71.92
52855;BME280;38719;51.418;7.286;2023-03-31T10:01:10;97818.19;;;13.15;71.78
52855;BME280;38719;51.418;7.286;2023-03-31T10:03:46;97814.69;;;13.34;72.31
52855;BME280;38719;51.418;7.286;2023-03-31T10:06:16;97810.94;;;13.46;71.36
52855;BME280;38719;51.418;7.286;2023-03-31T10:08:49;97804.28;;;13.31;70.47
52855;BME280;38719;51.418;7.286;2023-03-31T10:11:18;97799.19;;;13.18;71.91
52855;BME280;38719;51.418;7.286;2023-03-31T10:13:48;97788.44;;;13.39;70.98
52855;BME280;38719;51.418;7.286;2023-03-31T10:16:22;97788.28;;;13.50;71.38
52855;BME280;38719;51.418;7.286;2023-03-31T10:18:50;97774.63;;;13.73;70.37
52855;BME280;38719;51.418;7.286;2023-03-31T10:21:20;97772.19;;;13.99;70.06
52855;BME280;38719;51.418;7.286;2023-03-31T10:23:51;97765.41;;;14.05;69.18
52855;BME280;38719;51.418;7.286;2023-03-31T10:26:20;97769.75;;;14.16;69.07
52855;BME280;38719;51.418;7.286;2023-03-31T10:28:50;97763.47;;;13.97;69.01
52855;BME280;38719;51.418;7.286;2023-03-31T10:31:18;97761.78;;;14.34;68.55
52855;BME280;38719;51.418;7.286;2023-03-31T10:33:47;97784.53;;;14.20;68.38
52855;BME280;38719;51.418;7.286;2023-03-31T10:36:20;97778.38;;;14.00;68.72
52855;BME280;38719;51.418;7.286;2023-03-31T10:38:51;97780.69;;;13.56;69.36
52855;BME280;38719;51.418;7.286;2023-03-31T10:41:20;97784.63;;;13.42;69.96
52855;BME280;38719;51.418;7.286;2023-03-31T10:43:50;97780.25;;;13.70;69.06
52855;BME280;38719;51.418;7.286;2023-03-31T10:46:19;97775.19;;;13.67;68.43
52855;BME280;38719;51.418;7.286;2023-03-31T10:48:50;97776.16;;;13.66;67.74
52855;BME280;38719;51.418;7.286;2023-03-31T10:51:19;97773.78;;;13.43;67.43
52855;BME280;38719;51.418;7.286;2023-03-31T10:53:48;97756.13;;;13.90;67.15
52855;BME280;38719;51.418;7.286;2023-03-31T10:56:35;97756.31;;;14.35;66.66
52855;BME280;38719;51.418;7.286;2023-03-31T10:59:23;97758.88;;;14.65;65.44
52855;BME280;38719;51.418;7.286;2023-03-31T11:05:10;97737.59;;;15.45;63.32
52855;BME280;38719;51.418;7.286;2023-03-31T11:07:51;97738.63;;;15.89;63.00
52855;BME280;38719;51.418;7.286;2023-03-31T11:10:33;97719.97;;;16.05;61.56
52855;BME280;38719;51.418;7.286;2023-03-31T11:13:06;97721.09;;;16.29;62.11
52855;BME280;38719;51.418;7.286;2023-03-31T11:15:41;97706.78;;;16.55;60.63
52855;BME280;38719;51.418;7.286;2023-03-31T11:18:27;97718.06;;;16.67;60.92
52855;BME280;38719;51.418;7.286;2023-03-31T11:21:07;97714.56;;;16.66;60.72
52855;BME280;38719;51.418;7.286;2023-03-31T11:23:40;97709.97;;;16.16;61.11
52855;BME280;38719;51.418;7.286;2023-03-31T11:26:11;97719.97;;;16.05;60.79
52855;BME280;38719;51.418;7.286;2023-03-31T11:28:49;97791.38;;;15.80;62.34
52855;BME280;38719;51.418;7.286;2023-03-31T11:31:26;97788.47;;;14.63;64.08
52855;BME280;38719;51.418;7.286;2023-03-31T11:37:15;97771.63;;;13.17;67.32
52855;BME280;38719;51.418;7.286;2023-03-31T11:39:56;97781.88;;;13.02;68.54
52855;BME280;38719;51.418;7.286;2023-03-31T11:42:32;97780.88;;;12.94;70.64
52855;BME280;38719;51.418;7.286;2023-03-31T11:45:12;97778.59;;;12.79;69.08
52855;BME280;38719;51.418;7.286;2023-03-31T11:47:44;97775.09;;;12.88;69.60
52855;BME280;38719;51.418;7.286;2023-03-31T11:50:15;97774.38;;;12.86;69.09
52855;BME280;38719;51.418;7.286;2023-03-31T11:52:52;97777.06;;;12.86;69.59
52855;BME280;38719;51.418;7.286;2023-03-31T11:55:24;97779.19;;;12.93;70.13
52855;BME280;38719;51.418;7.286;2023-03-31T11:57:59;97783.59;;;13.23;70.66
52855;BME280;38719;51.418;7.286;2023-03-31T12:00:32;97776.72;;;13.40;69.55
52855;BME280;38719;51.418;7.286;2023-03-31T12:03:06;97773.22;;;13.59;70.02
52855;BME280;38719;51.418;7.286;2023-03-31T12:05:37;97762.31;;;14.10;69.26
52855;BME280;38719;51.418;7.286;2023-03-31T12:08:11;97759.66;;;14.38;68.19
52855;BME280;38719;51.418;7.286;2023-03-31T12:10:44;97758.00;;;14.27;66.60
52855;BME280;38719;51.418;7.286;2023-03-31T12:13:32;97749.34;;;14.15;68.08
52855;BME280;38719;51.418;7.286;2023-03-31T12:16:09;97751.03;;;14.16;67.29
52855;BME280;38719;51.418;7.286;2023-03-31T12:18:41;97751.66;;;14.28;68.13
52855;BME280;38719;51.418;7.286;2023-03-31T12:21:11;97745.59;;;14.35;67.51
52855;BME280;38719;51.418;7.286;2023-03-31T12:23:42;97737.19;;;14.21;67.02
52855;BME280;38719;51.418;7.286;2023-03-31T12:26:22;97737.22;;;14.48;66.78
52855;BME280;38719;51.418;7.286;2023-03-31T12:28:57;97728.81;;;14.71;66.65
52855;BME280;38719;51.418;7.286;2023-03-31T12:31:27;97740.13;;;14.55;65.13
52855;BME280;38719;51.418;7.286;2023-03-31T12:33:58;97726.19;;;14.51;64.37
52855;BME280;38719;51.418;7.286;2023-03-31T12:36:35;97719.88;;;14.80;65.47
52855;BME280;38719;51.418;7.286;2023-03-31T12:39:18;97715.75;;;14.58;64.02
52855;BME280;38719;51.418;7.286;2023-03-31T12:42:00;97720.84;;;14.51;64.19
52855;BME280;38719;51.418;7.286;2023-03-31T12:44:37;97720.56;;;14.55;64.38
52855;BME280;38719;51.418;7.286;2023-03-31T12:47:25;97726.34;;;14.50;65.42
52855;BME280;38719;51.418;7.286;2023-03-31T12:50:11;97730.63;;;14.43;64.82
52855;BME280;38719;51.418;7.286;2023-03-31T12:52:48;97728.63;;;14.17;66.65
52855;BME280;38719;51.418;7.286;2023-03-31T12:55:32;97729.06;;;14.40;66.33
52855;BME280;38719;51.418;7.286;2023-03-31T12:58:34;97731.16;;;14.46;66.47
52855;BME280;38719;51.418;7.286;2023-03-31T13:01:06;97737.09;;;14.40;66.12
52855;BME280;38719;51.418;7.286;2023-03-31T13:03:47;97729.59;;;14.26;66.49
52855;BME280;38719;51.418;7.286;2023-03-31T13:09:41;97723.72;;;14.12;66.60
52855;BME280;38719;51.418;7.286;2023-03-31T13:12:14;97708.56;;;13.83;66.94
52855;BME280;38719;51.418;7.286;2023-03-31T13:14:44;97706.19;;;14.18;67.50
52855;BME280;38719;51.418;7.286;2023-03-31T13:17:21;97706.47;;;14.52;66.96
52855;BME280;38719;51.418;7.286;2023-03-31T13:19:51;97692.34;;;14.60;66.74
52855;BME280;38719;51.418;7.286;2023-03-31T13:22:32;97693.94;;;14.81;66.58
52855;BME280;38719;51.418;7.286;2023-03-31T13:25:35;97685.47;;;15.04;65.94
52855;BME280;38719;51.418;7.286;2023-03-31T13:28:10;97694.84;;;14.90;65.70
52855;BME280;38719;51.418;7.286;2023-03-31T13:30:47;97695.78;;;14.98;65.97
52855;BME280;38719;51.418;7.286;2023-03-31T13:33:19;97706.72;;;14.69;65.71
52855;BME280;38719;51.418;7.286;2023-03-31T13:35:50;97711.38;;;14.67;66.32
52855;BME280;38719;51.418;7.286;2023-03-31T13:38:26;97698.78;;;14.40;67.98
52855;BME280;38719;51.418;7.286;2023-03-31T13:41:12;97705.28;;;14.37;68.05